Řízení letového provozu České republiky
Letiste: LKKB Aktualizace: 26.05.2019 23:00:25  UTC
 METAR LKKB 26.05. 23:00 ...
METAR LKKB 262300Z 19005KT CAVOK 13/09 Q1012 RMK BLU=
 TAF LKKB 26.05. 17:00 COR
TAF COR LKKB 261700Z 2618/2718 25008KT CAVOK      BECMG 2709/2711 SCT035      BECMG 2715/2717 BKN035=